Aérodrome :
LOGIN :

S'inscrire | Disclaimer

   EN    FR    IT 

 










Légende :    VFR   VFR Marginal   IFR   IFR Intensif   IFR Très Intensif
Visi : 
Plafond : 
>= 8 km
>= 3000ft
5 à 8 km
1000 à 3000 ft
1500m à 5 km
500 à 1000 ft
800 à 1500m
200 à 500 ft
< 800m
< 200 ft
Symboles :   Orages  Brouillard  Fortes neiges  Fortes précipitations  Vent > 20 kt
SIGMETs :   Divers  Orages  Givrage  Turbulence  Onde Orograph.  Cendres Volcan.






- Altitude de l'aérodrome : 327 ft
- Code IATA : BHX


EGBB - Birmingham

DERNIER METAR :
  • 270220Z 19007KT 160V220 9999 BKN017 OVC043 06/05 Q1001

METARs EXPIRÉS :
  • 270150Z 19008KT 160V230 9999 BKN009 BKN013 BKN032 06/05 Q1002
  • 270120Z 19007KT 160V230 9999 SCT008 06/05 Q1002
  • 270050Z 17007KT 9999 SCT007 BKN011 06/05 Q1002
  • 270020Z 20008KT 170V240 9999 BKN006 OVC013 06/06 Q1003

TAF TAF EGBB
Valide du 27 à 00h jusqu'au 28 à 00h UTC


262256Z 2700/2724 18007KT 9999 SCT045
PROB30
TEMPO 2700/2709 6000 SHRA BKN006
TEMPO 2720/2724 6000 RA BKN006
ATIS : +44 121 780 0910



MET'MAP, la Météo Aéronautique d'un coup d'oeil ! - Copyright ORBIFLY Décembre 2007 - Disclaimer

ORBIFLY MET'MAP TEAM :

Programmation & Développement : Alexandra Zaïnal
Sur une idée originale de : Baudouin d'Aumeries
Assistance à la programmation : Marc-Olivier Méhu
Soutien technique & logistique : Manuel Goepfert

Contact : metmap@orbifly.com




SOURCES & CREDITS :

   NOAA